Sim-Planet VA

Sim-Planet Nouvel Horizon. By: Anthony Pay
Since 2020.




 METAR ET TAF INFORMATION
METAR FOR GMME
ADDS - METARS form results

(2047 UTC 28 January 2022)
Data provider http://aviationweather.gov/metar/data/
 
METAR text: GMME 282030Z 09008KT 6000 NSC 15/05 Q1020 NOSIG
Conditions at: GMME (RABAT/SALE (RMAF, MA) observed 2030 UTC 28 January 2022
Temperature: 15.0°C (59°F)
Dewpoint: 5.0°C (41°F) [RH = 51%]
Pressure (altimeter): 30.12 inches Hg (1020.0 mb)
Winds: from the E (90 degrees) at 9 MPH (8 knots; 4.1 m/s)
Visibility: 4 miles ( 6 km)
Ceiling: at least 12,000 feet AGL
Clouds: sky clear below 12,000 feet AGL
Weather: no significant weather observed at this time

METAR text: GMME 282000Z 09007KT 6000 NSC 15/05 Q1020 NOSIG
Conditions at: GMME (RABAT/SALE (RMAF, MA) observed 2000 UTC 28 January 2022
Temperature: 15.0°C (59°F)
Dewpoint: 5.0°C (41°F) [RH = 51%]
Pressure (altimeter): 30.12 inches Hg (1020.0 mb)
Winds: from the E (90 degrees) at 8 MPH (7 knots; 3.6 m/s)
Visibility: 4 miles ( 6 km)
Ceiling: at least 12,000 feet AGL
Clouds: sky clear below 12,000 feet AGL
Weather: no significant weather observed at this time

Forecast for: GMME (RABAT/SALE (RMAF, MA)
Text: TAF GMME 281700Z 2818/2924 09005KT 6000 NSC
Forecast period: 1800 UTC 28 January 2022 to 0000 UTC 30 January 2022
Forecast type: FROM: standard forecast or significant change
Winds: from the E (90 degrees) at 6 MPH (5 knots; 2.6 m/s)
Visibility: 4 miles (6 km)
Ceiling: unknown
Clouds: missing
Weather: no significant weather forecast for this period
Text: TEMPO 2822/2908 VRB02KT
Forecast period: 2200 UTC 28 January 2022 to 0800 UTC 29 January 2022
Forecast type: TEMPORARY: The following changes expected for less than half the time period
Winds: variable direction winds at 2 MPH (2 knots; 1.0 m/s)
Visibility: missing
Ceiling: unknown
Clouds: missing
Weather: no significant weather forecast for this period

 AÉROPORT DE AÉROPORT

 INFORMATIONS DE PISTE
Piste 04 Longueur de la piste 11483 ft Largeur de la piste 148 ft
Élévation de la piste 273 ft Seuil de la piste déplacés 0 ft Runway heading 31
Piste 22 Longueur de la piste 11483 ft Largeur de la piste 148 ft
Élévation de la piste 240 ft Seuil de la piste déplacés 0 ft Runway heading 211

 AÉROPORT FRÉQUENCES
Type APP Nom APP Féquence 118.9 MHZ
Type TWR Nom TWR Féquence 118.3 MHZ

 SIDA DE NAVIGATION
Type VOR-DME Nom Rabat Féquence 116500 KHZ
Type NDB Nom Rabat Féquence 332 KHZ

Nos Partenaires